createdAt,value
2018-11-29T00:00:16.594Z,6.70
2018-11-29T00:02:44.606Z,6.80
2018-11-29T00:05:12.134Z,6.80
2018-11-29T00:07:39.642Z,6.80
2018-11-29T00:10:07.286Z,6.80
2018-11-29T00:12:35.028Z,6.80
2018-11-29T00:15:02.734Z,6.80
2018-11-29T00:17:30.311Z,6.80
2018-11-29T00:19:57.840Z,6.80
2018-11-29T00:22:25.343Z,6.80
2018-11-29T00:24:52.844Z,6.90
2018-11-29T00:27:20.330Z,6.80
2018-11-29T00:29:48.978Z,6.90
2018-11-29T00:32:16.458Z,6.90
2018-11-29T00:34:43.948Z,6.90
2018-11-29T00:37:11.388Z,6.90
2018-11-29T00:39:38.895Z,6.90
2018-11-29T00:42:06.422Z,6.90
2018-11-29T00:44:34.088Z,6.90
2018-11-29T00:47:01.612Z,6.90
2018-11-29T00:49:29.125Z,6.90
2018-11-29T00:51:56.713Z,6.90
2018-11-29T00:54:24.216Z,6.90
2018-11-29T00:56:51.877Z,6.90
2018-11-29T00:59:19.354Z,6.90
2018-11-29T01:01:52.688Z,6.90
2018-11-29T01:04:20.256Z,6.90
2018-11-29T01:06:47.768Z,6.90
2018-11-29T01:09:15.311Z,6.90
2018-11-29T01:11:42.936Z,6.90
2018-11-29T01:14:10.429Z,6.90
2018-11-29T01:16:37.985Z,6.90
2018-11-29T01:19:05.611Z,7.00
2018-11-29T01:21:33.167Z,7.00
2018-11-29T01:24:00.697Z,6.90
2018-11-29T01:26:28.214Z,7.00
2018-11-29T01:28:55.896Z,6.90
2018-11-29T01:31:23.345Z,6.90
2018-11-29T01:33:50.925Z,6.90
2018-11-29T01:36:18.438Z,6.90
2018-11-29T01:38:45.932Z,6.90
2018-11-29T01:41:13.364Z,6.90
2018-11-29T01:43:40.908Z,6.90
2018-11-29T01:46:08.540Z,6.90
2018-11-29T01:48:36.022Z,6.90
2018-11-29T01:51:03.479Z,6.90
2018-11-29T01:53:31.139Z,7.00
2018-11-29T01:55:58.647Z,7.00
2018-11-29T01:58:26.234Z,7.00
2018-11-29T02:00:53.741Z,7.00
2018-11-29T02:03:21.426Z,7.00
2018-11-29T02:05:48.953Z,7.00
2018-11-29T02:08:16.509Z,6.90
2018-11-29T02:10:49.303Z,7.00
2018-11-29T02:13:17.689Z,7.00
2018-11-29T02:15:45.305Z,7.00
2018-11-29T02:18:12.955Z,7.00
2018-11-29T02:20:40.474Z,6.90
2018-11-29T02:23:07.965Z,6.90
2018-11-29T02:25:35.505Z,6.90
2018-11-29T02:28:02.974Z,6.90
2018-11-29T02:30:30.691Z,6.90
2018-11-29T02:32:58.168Z,6.90
2018-11-29T02:35:25.657Z,6.90
2018-11-29T02:37:53.217Z,6.90
2018-11-29T02:40:20.733Z,6.90
2018-11-29T02:42:48.949Z,6.90
2018-11-29T02:45:20.703Z,6.90
2018-11-29T02:47:48.202Z,6.90
2018-11-29T02:50:15.747Z,6.90
2018-11-29T02:52:43.287Z,6.90
2018-11-29T02:55:11.365Z,6.90
2018-11-29T02:57:39.181Z,6.90
2018-11-29T03:00:12.012Z,6.90
2018-11-29T03:02:39.509Z,6.90
2018-11-29T03:05:07.283Z,6.90
2018-11-29T03:07:34.965Z,6.90
2018-11-29T03:10:02.963Z,6.90
2018-11-29T03:12:30.551Z,6.90
2018-11-29T03:14:58.015Z,7.00
2018-11-29T03:17:25.463Z,7.00
2018-11-29T03:19:52.925Z,7.00
2018-11-29T03:22:20.416Z,7.00
2018-11-29T03:24:47.995Z,7.00
2018-11-29T03:27:15.695Z,7.00
2018-11-29T03:29:43.167Z,7.00
2018-11-29T03:32:10.680Z,7.00
2018-11-29T03:34:38.691Z,7.00
2018-11-29T03:37:06.810Z,7.00
2018-11-29T03:39:34.302Z,7.00
2018-11-29T03:42:01.940Z,7.00
2018-11-29T03:44:29.391Z,7.00
2018-11-29T03:46:56.958Z,7.00
2018-11-29T03:49:24.463Z,7.00
2018-11-29T03:51:51.963Z,7.00
2018-11-29T03:54:19.473Z,6.90
2018-11-29T03:56:47.040Z,7.00
2018-11-29T03:59:14.676Z,6.90
2018-11-29T04:01:42.242Z,6.90
2018-11-29T04:04:09.755Z,6.90
2018-11-29T04:06:37.235Z,6.90
2018-11-29T04:09:09.737Z,6.90
2018-11-29T04:11:37.527Z,6.90
2018-11-29T04:14:05.420Z,6.90
2018-11-29T04:16:32.906Z,6.90
2018-11-29T04:19:01.273Z,6.90
2018-11-29T04:21:28.728Z,6.90
2018-11-29T04:23:56.210Z,6.90
2018-11-29T04:26:23.687Z,6.80
2018-11-29T04:28:51.246Z,6.80
2018-11-29T04:31:18.709Z,6.90
2018-11-29T04:33:46.170Z,6.90
2018-11-29T04:36:13.752Z,6.80
2018-11-29T04:38:41.243Z,6.80
2018-11-29T04:41:08.979Z,6.80
2018-11-29T04:43:36.660Z,6.80
2018-11-29T04:46:43.192Z,6.80
2018-11-29T04:49:10.756Z,6.90
2018-11-29T04:51:38.236Z,6.80
2018-11-29T04:54:06.456Z,6.80
2018-11-29T04:56:34.039Z,6.80
2018-11-29T04:59:01.587Z,6.80
2018-11-29T05:01:29.145Z,6.90
2018-11-29T05:03:56.654Z,6.80
2018-11-29T05:06:24.250Z,6.90
2018-11-29T05:08:52.080Z,6.80
2018-11-29T05:11:19.589Z,6.90
2018-11-29T05:13:47.070Z,6.80
2018-11-29T05:16:14.551Z,6.90
2018-11-29T05:18:42.450Z,6.90
2018-11-29T05:21:09.975Z,6.90
2018-11-29T05:23:37.442Z,6.90
2018-11-29T05:26:05.476Z,6.90
2018-11-29T05:28:33.046Z,6.90
2018-11-29T05:31:00.511Z,6.90
2018-11-29T05:33:28.088Z,6.90
2018-11-29T05:35:55.629Z,6.90
2018-11-29T05:38:23.103Z,6.90
2018-11-29T05:40:50.571Z,6.90
2018-11-29T05:43:18.071Z,6.90
2018-11-29T05:45:45.574Z,6.90
2018-11-29T05:48:13.050Z,6.90
2018-11-29T05:50:40.795Z,6.80
2018-11-29T05:53:08.262Z,6.80
2018-11-29T05:55:35.797Z,6.80
2018-11-29T05:58:03.288Z,6.80
2018-11-29T06:00:30.843Z,6.80
2018-11-29T06:02:58.360Z,6.80
2018-11-29T06:05:25.945Z,6.80
2018-11-29T06:07:53.616Z,6.70
2018-11-29T06:10:21.212Z,6.80
2018-11-29T06:12:48.692Z,6.80
2018-11-29T06:15:16.216Z,6.70
2018-11-29T06:17:43.748Z,6.80
2018-11-29T06:20:12.575Z,6.70
2018-11-29T06:22:40.412Z,6.80
2018-11-29T06:25:08.914Z,6.80
2018-11-29T06:27:36.412Z,6.80
2018-11-29T06:30:07.392Z,6.80
2018-11-29T06:32:34.942Z,6.70
2018-11-29T06:35:02.563Z,6.80
2018-11-29T06:37:30.589Z,6.80
2018-11-29T06:39:58.126Z,6.80
2018-11-29T06:42:25.711Z,6.80
2018-11-29T06:44:53.302Z,6.80
2018-11-29T06:47:20.815Z,6.80
2018-11-29T06:49:48.363Z,6.90
2018-11-29T06:52:18.836Z,6.80
2018-11-29T06:54:46.408Z,6.90
2018-11-29T06:57:13.913Z,6.90
2018-11-29T06:59:41.395Z,6.90
2018-11-29T07:02:08.960Z,6.90
2018-11-29T07:04:36.695Z,6.90
2018-11-29T07:07:04.628Z,6.90
2018-11-29T07:09:32.192Z,6.90
2018-11-29T07:11:59.720Z,6.90
2018-11-29T07:14:27.252Z,6.80
2018-11-29T07:16:54.886Z,6.80
2018-11-29T07:19:22.432Z,6.70
2018-11-29T07:21:53.196Z,6.70
2018-11-29T07:24:20.880Z,6.70
2018-11-29T07:26:48.439Z,6.60
2018-11-29T07:29:17.073Z,6.60
2018-11-29T07:31:43.605Z,6.60
2018-11-29T07:34:11.220Z,6.60
2018-11-29T07:36:38.960Z,6.60
2018-11-29T07:39:08.352Z,6.60
2018-11-29T07:41:36.738Z,6.60
2018-11-29T07:44:07.608Z,6.60
2018-11-29T07:46:35.330Z,6.60
2018-11-29T07:49:02.998Z,6.60
2018-11-29T07:51:30.625Z,6.60
2018-11-29T07:53:58.144Z,6.70
2018-11-29T07:56:25.748Z,6.70
2018-11-29T07:58:53.275Z,6.70
2018-11-29T08:01:20.858Z,6.70
2018-11-29T08:03:48.679Z,6.70
2018-11-29T08:06:16.275Z,6.80
2018-11-29T08:08:43.762Z,6.80
2018-11-29T08:11:11.494Z,6.80
2018-11-29T08:13:39.333Z,6.90
2018-11-29T08:16:07.029Z,6.80
2018-11-29T08:18:34.605Z,6.90
2018-11-29T08:21:02.129Z,6.90
2018-11-29T08:23:29.745Z,7.00
2018-11-29T08:25:57.274Z,7.00
2018-11-29T08:28:24.765Z,7.00
2018-11-29T08:30:52.249Z,7.00
2018-11-29T08:33:19.718Z,7.00
2018-11-29T08:35:47.311Z,7.00
2018-11-29T08:38:15.073Z,7.10
2018-11-29T08:40:42.632Z,7.00
2018-11-29T08:43:10.307Z,7.00
2018-11-29T08:45:37.834Z,7.10
2018-11-29T08:48:06.110Z,7.10
2018-11-29T08:50:33.717Z,7.10
2018-11-29T08:53:01.244Z,7.10
2018-11-29T08:55:28.789Z,7.10
2018-11-29T08:57:56.413Z,7.10
2018-11-29T09:00:23.904Z,7.10
2018-11-29T09:02:51.440Z,7.10
2018-11-29T09:05:19.150Z,7.10
2018-11-29T09:07:47.572Z,7.10
2018-11-29T09:10:16.328Z,7.00
2018-11-29T09:12:43.799Z,7.00
2018-11-29T09:15:12.606Z,7.00
2018-11-29T09:17:40.252Z,6.90
2018-11-29T09:20:10.997Z,6.90
2018-11-29T09:22:38.544Z,6.90
2018-11-29T09:25:08.813Z,6.90
2018-11-29T09:27:36.410Z,6.90
2018-11-29T09:30:08.027Z,6.90
2018-11-29T09:32:35.498Z,6.90
2018-11-29T09:35:03.015Z,6.90
2018-11-29T09:37:30.501Z,6.90
2018-11-29T09:39:58.011Z,6.90
2018-11-29T09:42:25.515Z,6.90
2018-11-29T09:44:53.021Z,6.80
2018-11-29T09:47:20.789Z,6.80
2018-11-29T09:49:48.272Z,6.80
2018-11-29T09:52:15.762Z,6.80
2018-11-29T09:54:43.371Z,6.80
2018-11-29T09:57:10.867Z,6.80
2018-11-29T09:59:38.371Z,6.80
2018-11-29T10:02:05.883Z,6.80
2018-11-29T10:04:33.569Z,6.80
2018-11-29T10:07:01.087Z,6.80
2018-11-29T10:09:28.603Z,6.80
2018-11-29T10:11:56.104Z,6.80
2018-11-29T10:14:23.592Z,6.80
2018-11-29T10:16:51.134Z,6.80
2018-11-29T10:19:18.751Z,6.80
2018-11-29T10:21:46.325Z,6.80
2018-11-29T10:24:13.897Z,6.70
2018-11-29T10:26:41.360Z,6.70
2018-11-29T10:29:08.858Z,6.70
2018-11-29T10:31:36.367Z,6.70
2018-11-29T10:34:03.931Z,6.60
2018-11-29T10:36:31.472Z,6.60
2018-11-29T10:38:59.011Z,6.60
2018-11-29T10:41:26.778Z,6.60
2018-11-29T10:43:54.272Z,6.50
2018-11-29T10:46:21.758Z,6.50
2018-11-29T10:48:49.224Z,6.50
2018-11-29T10:51:16.780Z,6.50
2018-11-29T10:53:44.232Z,6.50
2018-11-29T10:56:11.695Z,6.50
2018-11-29T10:58:39.197Z,6.60
2018-11-29T11:01:12.348Z,6.60
2018-11-29T11:03:39.837Z,6.60
2018-11-29T11:06:07.571Z,6.60
2018-11-29T11:08:35.072Z,6.60
2018-11-29T11:11:05.970Z,6.60
2018-11-29T11:13:33.585Z,6.60
2018-11-29T11:16:01.077Z,6.60
2018-11-29T11:18:28.620Z,6.60
2018-11-29T11:20:56.179Z,6.60
2018-11-29T11:23:23.695Z,6.50
2018-11-29T11:25:51.261Z,6.50
2018-11-29T11:28:18.815Z,6.50
2018-11-29T11:30:46.296Z,6.50
2018-11-29T11:33:13.843Z,6.50
2018-11-29T11:35:41.449Z,6.50
2018-11-29T11:38:08.983Z,6.50
2018-11-29T11:40:36.467Z,6.50
2018-11-29T11:43:05.226Z,6.50
2018-11-29T11:45:31.606Z,6.50
2018-11-29T11:48:03.297Z,6.50
2018-11-29T11:50:26.666Z,6.50
2018-11-29T11:52:54.780Z,6.50
2018-11-29T11:55:22.249Z,6.50
2018-11-29T11:57:49.788Z,6.60
2018-11-29T12:00:26.512Z,6.60
2018-11-29T12:02:57.097Z,6.60
2018-11-29T12:05:24.706Z,6.60
2018-11-29T12:07:52.277Z,6.60
2018-11-29T12:10:19.833Z,6.60
2018-11-29T12:12:47.404Z,6.60
2018-11-29T12:15:15.474Z,6.70
2018-11-29T12:17:44.878Z,6.70
2018-11-29T12:27:02.832Z,6.70
2018-11-29T12:29:30.348Z,6.70
2018-11-29T12:31:57.836Z,6.70
2018-11-29T12:34:25.320Z,6.70
2018-11-29T12:36:52.832Z,6.80
2018-11-29T12:39:20.743Z,6.70
2018-11-29T12:41:48.178Z,6.80
2018-11-29T12:44:15.691Z,6.80
2018-11-29T12:46:43.142Z,6.80
2018-11-29T12:49:10.619Z,6.90
2018-11-29T12:51:38.140Z,6.90
2018-11-29T12:54:06.132Z,6.90
2018-11-29T12:56:33.663Z,6.90
2018-11-29T12:59:01.290Z,6.90
2018-11-29T13:01:30.148Z,7.00
2018-11-29T13:04:00.271Z,7.00
2018-11-29T13:06:27.882Z,7.00
2018-11-29T13:09:00.903Z,7.00
2018-11-29T13:11:28.822Z,7.00
2018-11-29T13:13:56.418Z,7.00
2018-11-29T13:16:24.030Z,7.10
2018-11-29T13:18:51.847Z,7.10
2018-11-29T13:21:19.368Z,7.10
2018-11-29T13:23:46.954Z,7.10
2018-11-29T13:26:14.473Z,7.10
2018-11-29T13:28:41.989Z,7.10
2018-11-29T13:31:09.533Z,7.10
2018-11-29T13:33:37.100Z,7.20
2018-11-29T13:36:05.375Z,7.30
2018-11-29T13:38:32.842Z,7.30
2018-11-29T13:41:00.349Z,7.40
2018-11-29T13:43:27.843Z,7.40
2018-11-29T13:45:55.336Z,7.40
2018-11-29T13:48:22.827Z,7.40
2018-11-29T13:50:50.447Z,7.40
2018-11-29T13:53:17.969Z,7.40
2018-11-29T13:55:45.499Z,7.40
2018-11-29T13:58:13.079Z,7.40
2018-11-29T14:00:40.579Z,7.40
2018-11-29T14:03:09.903Z,7.40
2018-11-29T14:05:37.335Z,7.30
2018-11-29T14:08:06.131Z,7.30
2018-11-29T14:10:33.739Z,7.30
2018-11-29T14:13:01.241Z,7.30
2018-11-29T14:15:28.824Z,7.30
2018-11-29T14:17:56.333Z,7.30
2018-11-29T14:20:24.011Z,7.30
2018-11-29T14:22:51.619Z,7.30
2018-11-29T14:25:19.121Z,7.20
2018-11-29T14:27:47.717Z,7.20
2018-11-29T14:30:16.396Z,7.30
2018-11-29T14:32:43.989Z,7.30
2018-11-29T14:35:11.581Z,7.20
2018-11-29T14:37:39.330Z,7.30
2018-11-29T14:40:10.117Z,7.30
2018-11-29T14:42:37.741Z,7.30
2018-11-29T14:45:07.844Z,7.40
2018-11-29T14:47:35.462Z,7.50
2018-11-29T14:50:04.160Z,7.60
2018-11-29T14:52:31.718Z,7.60
2018-11-29T14:54:59.165Z,7.70
2018-11-29T14:57:26.633Z,7.80
2018-11-29T14:59:54.200Z,7.80
2018-11-29T15:02:21.747Z,7.90
2018-11-29T15:04:50.058Z,7.90
2018-11-29T15:07:17.717Z,7.90
2018-11-29T15:09:45.361Z,7.90
2018-11-29T15:12:13.022Z,7.90
2018-11-29T15:14:40.576Z,7.90
2018-11-29T15:17:08.433Z,7.90
2018-11-29T15:19:35.998Z,7.90
2018-11-29T15:22:03.515Z,7.90
2018-11-29T15:24:30.975Z,7.90
2018-11-29T15:26:58.557Z,7.90
2018-11-29T15:29:26.013Z,7.90
2018-11-29T15:31:53.511Z,7.90
2018-11-29T15:34:20.971Z,7.90
2018-11-29T15:36:48.631Z,7.90
2018-11-29T15:39:16.172Z,7.90
2018-11-29T15:41:43.672Z,7.90
2018-11-29T15:44:11.231Z,7.90
2018-11-29T15:46:38.746Z,7.90
2018-11-29T15:49:06.244Z,7.80
2018-11-29T15:51:33.753Z,7.80
2018-11-29T15:54:01.317Z,7.80
2018-11-29T15:56:28.799Z,7.80
2018-11-29T15:58:56.477Z,7.80
2018-11-29T16:01:24.005Z,7.80
2018-11-29T16:03:51.510Z,7.80
2018-11-29T16:06:19.032Z,7.80
2018-11-29T16:08:46.695Z,7.80
2018-11-29T16:11:14.171Z,7.80
2018-11-29T16:13:41.652Z,7.80
2018-11-29T16:16:09.198Z,7.80
2018-11-29T16:18:36.787Z,7.70
2018-11-29T16:21:04.585Z,7.80
2018-11-29T16:23:32.163Z,7.80
2018-11-29T16:25:59.951Z,7.70
2018-11-29T16:28:27.471Z,7.80
2018-11-29T16:30:56.597Z,7.80
2018-11-29T16:33:34.604Z,7.80
2018-11-29T16:36:02.212Z,7.80
2018-11-29T16:38:29.960Z,7.80
2018-11-29T16:40:57.548Z,7.80
2018-11-29T16:43:25.076Z,7.70
2018-11-29T16:45:52.598Z,7.80
2018-11-29T16:48:20.208Z,7.80
2018-11-29T16:50:47.752Z,7.70
2018-11-29T16:53:15.285Z,7.70
2018-11-29T16:55:42.825Z,7.70
2018-11-29T16:58:12.960Z,7.70
2018-11-29T17:00:40.456Z,7.70
2018-11-29T17:03:08.133Z,7.70
2018-11-29T17:05:35.794Z,7.70
2018-11-29T17:08:03.483Z,7.70
2018-11-29T17:10:31.094Z,7.70
2018-11-29T17:13:00.190Z,7.70
2018-11-29T17:15:27.754Z,7.70
2018-11-29T17:17:55.371Z,7.70
2018-11-29T17:20:22.865Z,7.60
2018-11-29T17:22:53.103Z,7.60
2018-11-29T17:25:20.608Z,7.60
2018-11-29T17:27:48.963Z,7.60
2018-11-29T17:30:21.563Z,7.60
2018-11-29T17:32:50.135Z,7.50
2018-11-29T17:35:17.641Z,7.50
2018-11-29T17:37:45.160Z,7.60
2018-11-29T17:40:13.832Z,7.60
2018-11-29T17:42:41.518Z,7.60
2018-11-29T17:45:11.159Z,7.60
2018-11-29T17:47:38.798Z,7.60
2018-11-29T17:50:09.487Z,7.60
2018-11-29T17:52:36.987Z,7.60
2018-11-29T17:55:05.611Z,7.60
2018-11-29T17:57:33.191Z,7.60
2018-11-29T18:00:00.789Z,7.60
2018-11-29T18:02:28.367Z,7.50
2018-11-29T18:04:55.853Z,7.50
2018-11-29T18:07:23.377Z,7.50
2018-11-29T18:09:50.967Z,7.50
2018-11-29T18:12:18.612Z,7.50
2018-11-29T18:14:46.169Z,7.50
2018-11-29T18:17:13.695Z,7.50
2018-11-29T18:19:41.191Z,7.50
2018-11-29T18:22:08.763Z,7.60
2018-11-29T18:24:36.314Z,7.60
2018-11-29T18:27:03.953Z,7.60
2018-11-29T18:29:31.460Z,7.60
2018-11-29T18:31:58.951Z,7.60
2018-11-29T18:34:26.593Z,7.70
2018-11-29T18:36:53.958Z,7.70
2018-11-29T18:39:21.434Z,7.70
2018-11-29T18:41:48.940Z,7.70
2018-11-29T18:44:16.551Z,7.70
2018-11-29T18:46:44.079Z,7.70
2018-11-29T18:49:11.537Z,7.70
2018-11-29T18:51:39.035Z,7.70
2018-11-29T18:54:06.541Z,7.70
2018-11-29T18:56:34.887Z,7.70
2018-11-29T18:59:02.500Z,7.70
2018-11-29T19:01:30.022Z,7.80
2018-11-29T19:03:57.545Z,7.80
2018-11-29T19:06:25.103Z,7.80
2018-11-29T19:08:52.643Z,7.80
2018-11-29T19:11:20.260Z,7.80
2018-11-29T19:13:47.728Z,7.80
2018-11-29T19:16:15.313Z,7.80
2018-11-29T19:18:42.837Z,7.80
2018-11-29T19:21:10.431Z,7.80
2018-11-29T19:23:38.055Z,7.80
2018-11-29T19:26:06.564Z,7.80
2018-11-29T19:28:34.029Z,7.80
2018-11-29T19:31:01.505Z,7.80
2018-11-29T19:33:29.042Z,7.80
2018-11-29T19:35:56.462Z,7.70
2018-11-29T19:38:23.953Z,7.70
2018-11-29T19:40:51.467Z,7.80
2018-11-29T19:43:18.997Z,7.70
2018-11-29T19:45:46.535Z,7.80
2018-11-29T19:48:14.104Z,7.80
2018-11-29T19:50:41.664Z,7.80
2018-11-29T19:53:15.123Z,7.80
2018-11-29T19:55:42.753Z,7.80
2018-11-29T19:58:10.176Z,7.80
2018-11-29T20:00:38.261Z,7.80
2018-11-29T20:03:06.206Z,7.80
2018-11-29T20:05:33.735Z,7.80
2018-11-29T20:08:01.216Z,7.80
2018-11-29T20:10:28.709Z,7.80
2018-11-29T20:13:01.919Z,7.80
2018-11-29T20:15:29.479Z,7.70
2018-11-29T20:17:57.011Z,7.70
2018-11-29T20:20:24.571Z,7.70
2018-11-29T20:22:52.088Z,7.70
2018-11-29T20:25:20.939Z,7.70
2018-11-29T20:27:48.601Z,7.70
2018-11-29T20:30:17.134Z,7.70
2018-11-29T20:32:45.224Z,7.80
2018-11-29T20:35:13.043Z,7.80
2018-11-29T20:37:40.759Z,7.80
2018-11-29T20:40:16.712Z,7.80
2018-11-29T20:42:45.144Z,7.80
2018-11-29T20:45:22.018Z,7.80
2018-11-29T20:47:49.555Z,7.80
2018-11-29T20:50:18.615Z,7.80
2018-11-29T20:52:46.879Z,7.80
2018-11-29T20:55:16.336Z,7.80
2018-11-29T20:57:44.009Z,7.90
2018-11-29T21:00:12.949Z,7.90
2018-11-29T21:02:40.664Z,7.80
2018-11-29T21:05:09.952Z,7.80
2018-11-29T21:07:37.523Z,7.80
2018-11-29T21:10:19.369Z,7.80
2018-11-29T21:12:46.856Z,7.80
2018-11-29T21:15:14.417Z,7.80
2018-11-29T21:17:42.003Z,7.90
2018-11-29T21:20:11.729Z,7.80
2018-11-29T21:22:39.234Z,7.80
2018-11-29T21:25:09.495Z,7.90
2018-11-29T21:27:37.013Z,7.90
2018-11-29T21:30:08.516Z,7.90
2018-11-29T21:32:36.000Z,7.90
2018-11-29T21:35:03.922Z,7.90
2018-11-29T21:37:34.648Z,7.90
2018-11-29T21:40:02.436Z,7.90
2018-11-29T21:42:29.991Z,8.00
2018-11-29T21:44:57.546Z,8.00
2018-11-29T21:47:25.103Z,8.00
2018-11-29T21:49:52.700Z,8.00
2018-11-29T21:52:20.182Z,8.00
2018-11-29T21:54:47.811Z,8.00
2018-11-29T21:57:15.414Z,8.00
2018-11-29T21:59:43.078Z,8.00
2018-11-29T22:02:10.691Z,8.00
2018-11-29T22:04:38.192Z,8.10
2018-11-29T22:07:05.724Z,8.10
2018-11-29T22:09:33.237Z,8.10
2018-11-29T22:12:00.807Z,8.10
2018-11-29T22:14:28.335Z,8.10
2018-11-29T22:16:55.959Z,8.10
2018-11-29T22:19:23.625Z,8.10
2018-11-29T22:21:51.178Z,8.10
2018-11-29T22:24:18.687Z,8.10
2018-11-29T22:26:46.215Z,8.10
2018-11-29T22:29:13.805Z,8.10
2018-11-29T22:31:41.347Z,8.10
2018-11-29T22:34:08.853Z,8.00
2018-11-29T22:36:36.323Z,8.00
2018-11-29T22:39:06.281Z,8.00
2018-11-29T22:41:33.839Z,8.00
2018-11-29T22:44:01.404Z,8.00
2018-11-29T22:46:28.999Z,8.00
2018-11-29T22:48:56.473Z,8.00
2018-11-29T22:51:23.951Z,8.00
2018-11-29T22:53:51.473Z,8.00
2018-11-29T22:56:18.959Z,8.00
2018-11-29T22:58:46.521Z,8.00
2018-11-29T23:01:19.590Z,8.00
2018-11-29T23:03:47.210Z,8.00
2018-11-29T23:06:14.704Z,8.00
2018-11-29T23:08:42.223Z,8.00
2018-11-29T23:11:09.842Z,8.00
2018-11-29T23:13:37.332Z,8.00
2018-11-29T23:16:05.405Z,8.00
2018-11-29T23:18:32.913Z,8.00
2018-11-29T23:21:00.388Z,8.00
2018-11-29T23:23:27.846Z,8.00
2018-11-29T23:25:55.303Z,8.00
2018-11-29T23:28:22.837Z,8.00
2018-11-29T23:30:50.291Z,8.00
2018-11-29T23:33:17.777Z,8.00
2018-11-29T23:35:45.298Z,8.00
2018-11-29T23:38:12.816Z,8.00
2018-11-29T23:40:40.272Z,8.00
2018-11-29T23:43:07.768Z,8.00
2018-11-29T23:45:35.370Z,8.00
2018-11-29T23:48:02.844Z,8.00
2018-11-29T23:50:30.314Z,8.00
2018-11-29T23:52:57.782Z,8.00
2018-11-29T23:55:25.297Z,8.00
2018-11-29T23:57:52.742Z,8.00
